Time,TemperatureF,DewpointF,PressureIn,WindDirection,WindDirectionDegrees,WindSpeedMPH,WindSpeedGustMPH,Humidity,HourlyPrecipIn,Conditions,Clouds,dailyrainin,SoftwareType,DateUTC
2013-05-02 00:00:00,68.6,59.6,29.98,ENE,74,0.0,0.0,73,0.00,,,0.00,VWS V14.01,2013-05-02 04:00:00,
2013-05-02 00:01:00,68.6,59.6,29.98,ENE,74,0.0,0.0,73,0.00,,,0.00,VWS V14.01,2013-05-02 04:01:00,
2013-05-02 00:02:00,68.6,59.6,29.98,ENE,74,0.0,0.0,73,0.00,,,0.00,VWS V14.01,2013-05-02 04:02:00,
2013-05-02 00:04:00,68.6,59.6,29.98,ENE,74,0.0,0.0,73,0.00,,,0.00,VWS V14.01,2013-05-02 04:04:00,
2013-05-02 00:06:00,68.5,59.5,29.98,ENE,74,0.0,1.0,73,0.00,,,0.00,VWS V14.01,2013-05-02 04:06:00,
2013-05-02 00:11:00,68.5,59.9,29.98,ENE,74,0.0,0.0,74,0.00,,,0.00,VWS V14.01,2013-05-02 04:11:00,
2013-05-02 00:16:00,68.4,59.8,29.98,ENE,74,0.0,0.0,74,0.00,,,0.00,VWS V14.01,2013-05-02 04:16:00,
2013-05-02 00:21:00,68.3,59.7,29.98,ENE,74,0.0,0.0,74,0.00,,,0.00,VWS V14.01,2013-05-02 04:21:00,
2013-05-02 00:26:00,68.1,59.5,29.98,ENE,74,1.0,2.0,74,0.00,,,0.00,VWS V14.01,2013-05-02 04:26:00,
2013-05-02 00:32:00,68.1,59.5,29.98,ENE,69,0.0,0.0,74,0.00,,,0.00,VWS V14.01,2013-05-02 04:32:00,
2013-05-02 00:37:00,68.0,59.8,29.98,ENE,68,2.0,4.0,75,0.00,,,0.00,VWS V14.01,2013-05-02 04:37:00,
2013-05-02 00:42:00,68.1,59.9,29.98,ENE,68,0.0,0.0,75,0.00,,,0.00,VWS V14.01,2013-05-02 04:42:00,
2013-05-02 00:47:00,68.1,59.9,29.98,ESE,106,2.0,3.0,75,0.00,,,0.00,VWS V14.01,2013-05-02 04:47:00,
2013-05-02 00:52:00,68.2,59.6,29.98,East,98,0.0,1.0,74,0.00,,,0.00,VWS V14.01,2013-05-02 04:52:00,
2013-05-02 00:57:00,68.3,59.7,29.98,East,98,0.0,1.0,74,0.00,,,0.00,VWS V14.01,2013-05-02 04:57:00,
2013-05-02 01:02:00,68.3,59.7,29.98,East,98,0.0,1.0,74,0.00,,,0.00,VWS V14.01,2013-05-02 05:02:00,
2013-05-02 01:07:00,68.3,59.3,29.98,East,84,1.0,3.0,73,0.00,,,0.00,VWS V14.01,2013-05-02 05:07:00,
2013-05-02 01:12:00,68.2,59.6,29.98,ENE,76,0.0,1.0,74,0.00,,,0.00,VWS V14.01,2013-05-02 05:12:00,
2013-05-02 01:17:00,68.2,59.2,29.98,East,94,0.0,1.0,73,0.00,,,0.00,VWS V14.01,2013-05-02 05:17:00,
2013-05-02 01:22:00,68.2,59.2,29.99,East,93,1.0,1.0,73,0.00,,,0.00,VWS V14.01,2013-05-02 05:22:00,
2013-05-02 01:27:00,68.1,58.7,29.98,East,100,0.0,0.0,72,0.00,,,0.00,VWS V14.01,2013-05-02 05:27:00,
2013-05-02 01:32:00,68.0,58.7,29.98,East,94,0.0,3.0,72,0.00,,,0.00,VWS V14.01,2013-05-02 05:32:00,
2013-05-02 01:37:00,68.0,58.3,29.98,SE,133,0.0,2.0,71,0.00,,,0.00,VWS V14.01,2013-05-02 05:37:00,
2013-05-02 01:42:00,68.0,58.3,29.98,ESE,105,0.0,0.0,71,0.00,,,0.00,VWS V14.01,2013-05-02 05:42:00,
2013-05-02 01:47:00,67.9,58.2,29.98,ESE,105,1.0,1.0,71,0.00,,,0.00,VWS V14.01,2013-05-02 05:47:00,
2013-05-02 01:52:00,67.7,58.0,29.99,South,177,0.0,0.0,71,0.00,,,0.00,VWS V14.01,2013-05-02 05:52:00,
2013-05-02 01:57:00,67.6,57.5,29.99,South,173,2.0,2.0,70,0.00,,,0.00,VWS V14.01,2013-05-02 05:57:00,
2013-05-02 02:02:00,67.6,57.5,29.99,South,173,0.0,1.0,70,0.00,,,0.00,VWS V14.01,2013-05-02 06:02:00,
2013-05-02 02:07:00,67.4,57.3,29.99,South,173,0.0,0.0,70,0.00,,,0.00,VWS V14.01,2013-05-02 06:07:00,
2013-05-02 02:12:00,67.2,57.1,29.99,South,173,0.0,0.0,70,0.00,,,0.00,VWS V14.01,2013-05-02 06:12:00,
2013-05-02 02:17:00,67.0,57.3,29.98,SE,145,0.0,0.0,71,0.00,,,0.00,VWS V14.01,2013-05-02 06:17:00,
2013-05-02 02:22:00,66.8,57.1,29.99,SE,125,4.0,4.0,71,0.00,,,0.00,VWS V14.01,2013-05-02 06:22:00,
2013-05-02 02:27:00,66.7,57.4,29.98,ESE,122,0.0,0.0,72,0.00,,,0.00,VWS V14.01,2013-05-02 06:27:00,
2013-05-02 02:32:00,66.5,56.8,29.98,SSW,198,5.0,6.0,71,0.00,,,0.00,VWS V14.01,2013-05-02 06:32:00,
2013-05-02 02:37:00,66.6,56.9,29.99,SSW,212,0.0,1.0,71,0.00,,,0.00,VWS V14.01,2013-05-02 06:37:00,
2013-05-02 02:42:00,66.8,56.7,29.98,South,178,0.0,1.0,70,0.00,,,0.00,VWS V14.01,2013-05-02 06:42:00,
2013-05-02 02:47:00,66.8,56.3,29.99,South,182,4.0,6.0,69,0.00,,,0.00,VWS V14.01,2013-05-02 06:47:00,
2013-05-02 02:52:00,66.9,56.4,29.99,East,97,2.0,3.0,69,0.00,,,0.00,VWS V14.01,2013-05-02 06:52:00,
2013-05-02 02:57:00,66.9,56.0,29.99,East,93,0.0,0.0,68,0.00,,,0.00,VWS V14.01,2013-05-02 06:57:00,
2013-05-02 03:06:00,66.8,55.9,29.99,ESE,113,0.0,0.0,68,0.00,,,0.00,VWS V14.01,2013-05-02 07:06:00,
2013-05-02 03:11:00,66.7,55.8,29.99,ESE,112,3.0,4.0,68,0.00,,,0.00,VWS V14.01,2013-05-02 07:11:00,
2013-05-02 03:16:00,66.5,56.0,29.99,ESE,111,1.0,2.0,69,0.00,,,0.00,VWS V14.01,2013-05-02 07:16:00,
2013-05-02 03:21:00,66.4,55.9,29.98,ESE,111,0.0,0.0,69,0.00,,,0.00,VWS V14.01,2013-05-02 07:21:00,
2013-05-02 03:26:00,66.3,55.8,29.99,ESE,111,0.0,0.0,69,0.00,,,0.00,VWS V14.01,2013-05-02 07:26:00,
2013-05-02 03:31:00,66.1,55.7,29.99,ESE,111,0.0,0.0,69,0.00,,,0.00,VWS V14.01,2013-05-02 07:31:00,
2013-05-02 03:36:00,66.0,55.5,29.98,ESE,111,0.0,1.0,69,0.00,,,0.00,VWS V14.01,2013-05-02 07:36:00,
2013-05-02 03:41:00,65.9,55.5,29.99,ESE,111,0.0,0.0,69,0.00,,,0.00,VWS V14.01,2013-05-02 07:41:00,
2013-05-02 03:46:00,65.8,55.4,29.99,ESE,111,0.0,0.0,69,0.00,,,0.00,VWS V14.01,2013-05-02 07:46:00,
2013-05-02 03:51:00,65.6,55.6,29.99,ESE,111,0.0,0.0,70,0.00,,,0.00,VWS V14.01,2013-05-02 07:51:00,
2013-05-02 03:56:00,65.4,55.4,29.99,ESE,112,0.0,0.0,70,0.00,,,0.00,VWS V14.01,2013-05-02 07:56:00,
2013-05-02 04:01:00,65.2,55.6,29.99,ESE,111,0.0,1.0,71,0.00,,,0.00,VWS V14.01,2013-05-02 08:01:00,
2013-05-02 04:06:00,64.9,55.7,29.99,ESE,112,0.0,0.0,72,0.00,,,0.00,VWS V14.01,2013-05-02 08:06:00,
2013-05-02 04:11:00,64.7,55.5,29.99,ESE,112,0.0,0.0,72,0.00,,,0.00,VWS V14.01,2013-05-02 08:11:00,
2013-05-02 04:16:00,64.5,55.7,29.99,ESE,111,0.0,0.0,73,0.00,,,0.00,VWS V14.01,2013-05-02 08:16:00,
2013-05-02 04:21:00,64.3,55.5,29.99,ESE,112,0.0,0.0,73,0.00,,,0.00,VWS V14.01,2013-05-02 08:21:00,
2013-05-02 04:26:00,64.1,55.3,29.99,ESE,112,0.0,0.0,73,0.00,,,0.00,VWS V14.01,2013-05-02 08:26:00,
2013-05-02 04:31:00,64.0,55.2,29.99,ESE,112,1.0,2.0,73,0.00,,,0.00,VWS V14.01,2013-05-02 08:31:00,
2013-05-02 04:38:00,64.0,55.2,29.99,ESE,112,1.0,2.0,73,0.00,,,0.00,VWS V14.01,2013-05-02 08:38:00,
2013-05-02 04:43:00,64.0,55.2,29.98,ESE,111,0.0,0.0,73,0.00,,,0.00,VWS V14.01,2013-05-02 08:43:00,
2013-05-02 04:48:00,63.9,55.1,29.98,ESE,112,0.0,0.0,73,0.00,,,0.00,VWS V14.01,2013-05-02 08:48:00,
2013-05-02 04:53:00,63.9,55.5,29.98,ESE,111,0.0,0.0,74,0.00,,,0.00,VWS V14.01,2013-05-02 08:53:00,
2013-05-02 04:58:00,63.8,55.0,29.98,ESE,112,0.0,2.0,73,0.00,,,0.00,VWS V14.01,2013-05-02 08:58:00,
2013-05-02 05:03:00,63.9,54.7,29.98,ESE,113,0.0,2.0,72,0.00,,,0.00,VWS V14.01,2013-05-02 09:03:00,
2013-05-02 05:08:00,63.9,55.1,29.98,ESE,113,0.0,1.0,73,0.00,,,0.00,VWS V14.01,2013-05-02 09:08:00,
2013-05-02 05:13:00,63.8,55.0,29.99,ESE,113,0.0,0.0,73,0.00,,,0.00,VWS V14.01,2013-05-02 09:13:00,
2013-05-02 05:18:00,63.8,55.0,29.98,ESE,113,0.0,1.0,73,0.00,,,0.00,VWS V14.01,2013-05-02 09:18:00,
2013-05-02 05:23:00,63.7,54.9,29.98,ESE,113,0.0,0.0,73,0.00,,,0.00,VWS V14.01,2013-05-02 09:23:00,
2013-05-02 05:28:00,63.7,54.9,29.98,ESE,113,1.0,1.0,73,0.00,,,0.00,VWS V14.01,2013-05-02 09:28:00,
2013-05-02 05:33:00,63.7,54.5,29.98,ESE,113,0.0,0.0,72,0.00,,,0.00,VWS V14.01,2013-05-02 09:33:00,
2013-05-02 05:38:00,63.6,54.8,29.98,ESE,113,0.0,0.0,73,0.00,,,0.00,VWS V14.01,2013-05-02 09:38:00,
2013-05-02 05:43:00,63.4,54.6,29.98,ESE,113,0.0,1.0,73,0.00,,,0.00,VWS V14.01,2013-05-02 09:43:00,
2013-05-02 05:48:00,63.3,54.9,29.98,ESE,113,0.0,1.0,74,0.00,,,0.00,VWS V14.01,2013-05-02 09:48:00,
2013-05-02 05:53:00,63.1,54.3,29.98,ESE,110,1.0,3.0,73,0.00,,,0.00,VWS V14.01,2013-05-02 09:53:00,
2013-05-02 05:58:00,63.0,54.2,29.98,ESE,110,0.0,1.0,73,0.00,,,0.00,VWS V14.01,2013-05-02 09:58:00,
2013-05-02 06:03:00,62.9,54.1,29.98,ESE,110,0.0,0.0,73,0.00,,,0.00,VWS V14.01,2013-05-02 10:03:00,
2013-05-02 06:08:00,62.8,54.4,29.98,ESE,110,3.0,3.0,74,0.00,,,0.00,VWS V14.01,2013-05-02 10:08:00,
2013-05-02 06:13:00,62.7,54.3,29.98,ESE,110,0.0,1.0,74,0.00,,,0.00,VWS V14.01,2013-05-02 10:13:00,
2013-05-02 06:18:00,62.4,54.0,29.98,ESE,110,0.0,0.0,74,0.00,,,0.00,VWS V14.01,2013-05-02 10:18:00,
2013-05-02 06:23:00,62.2,54.2,29.99,ESE,110,2.0,2.0,75,0.00,,,0.00,VWS V14.01,2013-05-02 10:23:00,
2013-05-02 06:28:00,61.9,53.9,29.99,ESE,109,1.0,3.0,75,0.00,,,0.00,VWS V14.01,2013-05-02 10:28:00,
2013-05-02 06:33:00,61.8,53.8,29.99,ESE,107,0.0,0.0,75,0.00,,,0.00,VWS V14.01,2013-05-02 10:33:00,
2013-05-02 06:38:00,61.5,53.9,29.99,ESE,108,0.0,0.0,76,0.00,,,0.00,VWS V14.01,2013-05-02 10:38:00,
2013-05-02 06:43:00,61.4,53.8,29.99,ESE,107,0.0,1.0,76,0.00,,,0.00,VWS V14.01,2013-05-02 10:43:00,
2013-05-02 06:48:00,61.3,53.7,29.99,ESE,108,0.0,0.0,76,0.00,,,0.00,VWS V14.01,2013-05-02 10:48:00,
2013-05-02 06:53:00,61.2,53.6,30.00,ESE,108,0.0,0.0,76,0.00,,,0.00,VWS V14.01,2013-05-02 10:53:00,
2013-05-02 06:58:00,61.1,53.5,30.00,ESE,108,0.0,0.0,76,0.00,,,0.00,VWS V14.01,2013-05-02 10:58:00,
2013-05-02 07:04:00,61.0,53.8,30.00,ESE,108,0.0,0.0,77,0.00,,,0.00,VWS V14.01,2013-05-02 11:04:00,
2013-05-02 07:09:00,60.8,53.5,30.00,ESE,107,0.0,2.0,77,0.00,,,0.00,VWS V14.01,2013-05-02 11:09:00,
2013-05-02 07:14:00,60.8,53.9,30.00,ESE,108,0.0,0.0,78,0.00,,,0.00,VWS V14.01,2013-05-02 11:14:00,
2013-05-02 07:19:00,60.7,53.8,30.01,ESE,107,0.0,0.0,78,0.00,,,0.00,VWS V14.01,2013-05-02 11:19:00,
2013-05-02 07:24:00,60.7,53.8,30.01,ESE,108,0.0,0.0,78,0.00,,,0.00,VWS V14.01,2013-05-02 11:24:00,
2013-05-02 07:29:00,60.7,54.2,30.01,ESE,107,0.0,0.0,79,0.00,,,0.00,VWS V14.01,2013-05-02 11:29:00,
2013-05-02 07:34:00,60.7,54.2,30.01,ESE,108,0.0,0.0,79,0.00,,,0.00,VWS V14.01,2013-05-02 11:34:00,
2013-05-02 07:39:00,60.8,54.3,30.01,ESE,108,0.0,0.0,79,0.00,,,0.00,VWS V14.01,2013-05-02 11:39:00,
2013-05-02 07:44:00,60.9,54.3,30.02,ESE,107,0.0,2.0,79,0.00,,,0.00,VWS V14.01,2013-05-02 11:44:00,
2013-05-02 07:49:00,61.2,54.3,30.02,ESE,108,1.0,1.0,78,0.00,,,0.00,VWS V14.01,2013-05-02 11:49:00,
2013-05-02 07:54:00,61.5,54.6,30.02,ESE,108,0.0,0.0,78,0.00,,,0.00,VWS V14.01,2013-05-02 11:54:00,
2013-05-02 07:59:00,61.9,54.6,30.03,ESE,108,0.0,1.0,77,0.00,,,0.00,VWS V14.01,2013-05-02 11:59:00,
2013-05-02 08:04:00,62.3,55.0,30.03,ESE,107,0.0,0.0,77,0.00,,,0.00,VWS V14.01,2013-05-02 12:04:00,
2013-05-02 08:09:00,62.9,55.2,30.03,ESE,108,0.0,1.0,76,0.00,,,0.00,VWS V14.01,2013-05-02 12:09:00,
2013-05-02 08:14:00,63.5,55.8,30.03,East,99,0.0,1.0,76,0.00,,,0.00,VWS V14.01,2013-05-02 12:14:00,
2013-05-02 08:19:00,64.1,55.7,30.03,East,99,0.0,0.0,74,0.00,,,0.00,VWS V14.01,2013-05-02 12:19:00,
2013-05-02 08:24:00,64.7,55.9,30.03,East,99,0.0,1.0,73,0.00,,,0.00,VWS V14.01,2013-05-02 12:24:00,
2013-05-02 08:29:00,65.0,56.2,30.03,East,99,0.0,1.0,73,0.00,,,0.00,VWS V14.01,2013-05-02 12:29:00,
2013-05-02 08:34:00,65.3,56.0,30.04,SE,129,0.0,2.0,72,0.00,,,0.00,VWS V14.01,2013-05-02 12:34:00,
2013-05-02 08:39:00,65.3,55.7,30.04,SE,137,2.0,3.0,71,0.00,,,0.00,VWS V14.01,2013-05-02 12:39:00,
2013-05-02 08:44:00,65.2,56.0,30.04,SSE,150,0.0,1.0,72,0.00,,,0.00,VWS V14.01,2013-05-02 12:44:00,
2013-05-02 08:49:00,65.0,55.8,30.04,South,191,3.0,3.0,72,0.00,,,0.00,VWS V14.01,2013-05-02 12:49:00,
2013-05-02 08:54:00,65.0,56.2,30.04,South,183,0.0,0.0,73,0.00,,,0.00,VWS V14.01,2013-05-02 12:54:00,
2013-05-02 08:59:00,65.2,56.3,30.04,SSW,192,1.0,2.0,73,0.00,,,0.00,VWS V14.01,2013-05-02 12:59:00,
2013-05-02 09:04:00,65.3,56.0,30.04,SSW,213,3.0,3.0,72,0.00,,,0.00,VWS V14.01,2013-05-02 13:04:00,
2013-05-02 09:09:00,65.4,56.5,30.05,SSW,213,2.0,8.0,73,0.00,,,0.00,VWS V14.01,2013-05-02 13:09:00,
2013-05-02 09:14:00,65.4,56.2,30.05,SSE,157,3.0,5.0,72,0.00,,,0.00,VWS V14.01,2013-05-02 13:14:00,
2013-05-02 09:19:00,65.3,56.8,30.05,SW,214,1.0,1.0,74,0.00,,,0.00,VWS V14.01,2013-05-02 13:19:00,
2013-05-02 09:24:00,65.4,56.5,30.05,WSW,248,5.0,7.0,73,0.00,,,0.00,VWS V14.01,2013-05-02 13:24:00,
2013-05-02 09:29:00,65.8,57.3,30.05,WSW,238,4.0,5.0,74,0.00,,,0.00,VWS V14.01,2013-05-02 13:29:00,
2013-05-02 09:34:00,66.2,57.7,30.05,WSW,239,1.0,5.0,74,0.00,,,0.00,VWS V14.01,2013-05-02 13:34:00,
2013-05-02 09:39:00,66.8,58.3,30.05,SW,236,1.0,1.0,74,0.00,,,0.00,VWS V14.01,2013-05-02 13:39:00,
2013-05-02 09:44:00,67.3,58.4,30.05,SW,234,0.0,1.0,73,0.00,,,0.00,VWS V14.01,2013-05-02 13:44:00,
2013-05-02 09:49:00,67.6,58.3,30.05,SW,217,2.0,3.0,72,0.00,,,0.00,VWS V14.01,2013-05-02 13:49:00,
2013-05-02 09:54:00,67.8,58.8,30.05,SW,219,2.0,5.0,73,0.00,,,0.00,VWS V14.01,2013-05-02 13:54:00,
2013-05-02 09:59:00,67.9,58.5,30.05,SW,232,0.0,4.0,72,0.00,,,0.00,VWS V14.01,2013-05-02 13:59:00,
2013-05-02 10:04:00,68.1,58.7,30.04,SSE,168,1.0,6.0,72,0.00,,,0.00,VWS V14.01,2013-05-02 14:04:00,
2013-05-02 10:09:00,68.1,58.3,30.04,WSW,241,4.0,7.0,71,0.00,,,0.00,VWS V14.01,2013-05-02 14:09:00,
2013-05-02 10:14:00,68.2,58.0,30.04,SW,223,2.0,3.0,70,0.00,,,0.00,VWS V14.01,2013-05-02 14:14:00,
2013-05-02 10:20:00,68.3,58.2,30.04,SW,214,6.0,6.0,70,0.00,,,0.00,VWS V14.01,2013-05-02 14:20:00,
2013-05-02 10:25:00,68.6,58.8,30.04,SW,230,5.0,7.0,71,0.00,,,0.00,VWS V14.01,2013-05-02 14:25:00,
2013-05-02 10:30:00,68.9,57.9,30.04,SSW,192,7.0,7.0,68,0.00,,,0.00,VWS V14.01,2013-05-02 14:30:00,
2013-05-02 10:35:00,69.2,58.2,30.04,West,261,3.0,3.0,68,0.00,,,0.00,VWS V14.01,2013-05-02 14:35:00,
2013-05-02 10:40:00,69.3,57.0,30.04,WSW,250,3.0,4.0,65,0.00,,,0.00,VWS V14.01,2013-05-02 14:40:00,
2013-05-02 10:45:00,68.9,57.1,30.05,WSW,237,3.0,3.0,66,0.00,,,0.00,VWS V14.01,2013-05-02 14:45:00,
2013-05-02 10:50:00,68.7,56.9,30.04,SW,220,6.0,6.0,66,0.00,,,0.00,VWS V14.01,2013-05-02 14:50:00,
2013-05-02 10:55:00,68.6,57.6,30.04,SW,233,4.0,4.0,68,0.00,,,0.00,VWS V14.01,2013-05-02 14:55:00,
2013-05-02 11:00:00,68.9,57.5,30.04,South,177,0.0,1.0,67,0.00,,,0.00,VWS V14.01,2013-05-02 15:00:00,
2013-05-02 11:05:00,69.3,57.5,30.04,ESE,123,0.0,2.0,66,0.00,,,0.00,VWS V14.01,2013-05-02 15:05:00,
2013-05-02 11:10:00,69.3,57.5,30.04,SSW,213,0.0,2.0,66,0.00,,,0.00,VWS V14.01,2013-05-02 15:10:00,
2013-05-02 11:15:00,69.2,57.8,30.04,WSW,250,5.0,6.0,67,0.00,,,0.00,VWS V14.01,2013-05-02 15:15:00,
2013-05-02 11:20:00,69.3,57.9,30.04,SW,225,3.0,7.0,67,0.00,,,0.00,VWS V14.01,2013-05-02 15:20:00,
2013-05-02 11:25:00,69.5,58.1,30.04,South,190,0.0,2.0,67,0.00,,,0.00,VWS V14.01,2013-05-02 15:25:00,
2013-05-02 11:30:00,69.7,58.3,30.04,SE,130,6.0,6.0,67,0.00,,,0.00,VWS V14.01,2013-05-02 15:30:00,
2013-05-02 11:35:00,70.0,58.5,30.04,SSW,211,1.0,1.0,67,0.00,,,0.00,VWS V14.01,2013-05-02 15:35:00,
2013-05-02 11:40:00,70.3,58.0,30.04,SSE,164,3.0,6.0,65,0.00,,,0.00,VWS V14.01,2013-05-02 15:40:00,
2013-05-02 11:45:00,70.3,57.6,30.04,SW,219,3.0,4.0,64,0.00,,,0.00,VWS V14.01,2013-05-02 15:45:00,
2013-05-02 11:50:00,70.3,57.6,30.04,SW,220,0.0,2.0,64,0.00,,,0.00,VWS V14.01,2013-05-02 15:50:00,
2013-05-02 11:55:00,70.4,57.7,30.04,SW,227,5.0,6.0,64,0.00,,,0.00,VWS V14.01,2013-05-02 15:55:00,
2013-05-02 12:00:00,70.3,57.1,30.04,WSW,243,5.0,6.0,63,0.00,,,0.00,VWS V14.01,2013-05-02 16:00:00,
2013-05-02 12:05:00,70.2,57.9,30.03,SW,233,2.0,7.0,65,0.00,,,0.00,VWS V14.01,2013-05-02 16:05:00,
2013-05-02 12:10:00,70.4,58.1,30.03,SSW,206,2.0,4.0,65,0.00,,,0.00,VWS V14.01,2013-05-02 16:10:00,
2013-05-02 12:15:00,70.8,57.6,30.03,SSW,199,1.0,4.0,63,0.00,,,0.00,VWS V14.01,2013-05-02 16:15:00,
2013-05-02 12:20:00,71.3,57.6,30.03,South,170,3.0,3.0,62,0.00,,,0.00,VWS V14.01,2013-05-02 16:20:00,
2013-05-02 12:25:00,72.0,57.4,30.03,West,263,4.0,4.0,60,0.00,,,0.00,VWS V14.01,2013-05-02 16:25:00,
2013-05-02 12:30:00,71.9,56.8,30.03,WSW,238,4.0,6.0,59,0.00,,,0.00,VWS V14.01,2013-05-02 16:30:00,
2013-05-02 12:35:00,71.8,57.2,30.03,SW,223,7.0,7.0,60,0.00,,,0.00,VWS V14.01,2013-05-02 16:35:00,
2013-05-02 12:40:00,71.5,57.8,30.03,SSW,206,0.0,1.0,62,0.00,,,0.00,VWS V14.01,2013-05-02 16:40:00,
2013-05-02 12:45:00,71.6,57.9,30.03,SW,228,2.0,2.0,62,0.00,,,0.00,VWS V14.01,2013-05-02 16:45:00,
2013-05-02 12:50:00,71.9,57.7,30.03,SSW,197,5.0,5.0,61,0.00,,,0.00,VWS V14.01,2013-05-02 16:50:00,
2013-05-02 12:55:00,71.9,57.3,30.03,WSW,256,2.0,5.0,60,0.00,,,0.00,VWS V14.01,2013-05-02 16:55:00,
2013-05-02 13:00:00,71.5,57.8,30.03,ESE,115,5.0,7.0,62,0.00,,,0.00,VWS V14.01,2013-05-02 17:00:00,
2013-05-02 13:05:00,71.7,58.5,30.03,SSW,206,4.0,4.0,63,0.00,,,0.00,VWS V14.01,2013-05-02 17:05:00,
2013-05-02 13:10:00,71.7,57.1,30.03,WSW,240,6.0,11.0,60,0.00,,,0.00,VWS V14.01,2013-05-02 17:10:00,
2013-05-02 13:15:00,71.5,57.8,30.02,SW,221,2.0,2.0,62,0.00,,,0.00,VWS V14.01,2013-05-02 17:15:00,
2013-05-02 13:20:00,71.8,57.6,30.03,WSW,248,1.0,5.0,61,0.00,,,0.00,VWS V14.01,2013-05-02 17:20:00,
2013-05-02 13:25:00,71.8,58.1,30.03,West,280,1.0,5.0,62,0.00,,,0.00,VWS V14.01,2013-05-02 17:25:00,
2013-05-02 13:30:00,72.0,58.3,30.02,SSW,200,0.0,2.0,62,0.00,,,0.00,VWS V14.01,2013-05-02 17:30:00,
2013-05-02 13:36:00,72.0,57.8,30.02,WSW,255,6.0,10.0,61,0.00,,,0.00,VWS V14.01,2013-05-02 17:36:00,
2013-05-02 13:41:00,71.5,57.8,30.02,WSW,240,2.0,3.0,62,0.00,,,0.00,VWS V14.01,2013-05-02 17:41:00,
2013-05-02 13:46:00,71.6,58.3,30.02,SW,234,1.0,1.0,63,0.00,,,0.00,VWS V14.01,2013-05-02 17:46:00,
2013-05-02 13:51:00,71.5,58.3,30.02,SW,232,3.0,3.0,63,0.00,,,0.00,VWS V14.01,2013-05-02 17:51:00,
2013-05-02 13:56:00,71.3,58.5,30.02,WSW,242,1.0,4.0,64,0.00,,,0.00,VWS V14.01,2013-05-02 17:56:00,
2013-05-02 14:01:00,71.3,58.9,30.02,WSW,248,1.0,2.0,65,0.00,,,0.00,VWS V14.01,2013-05-02 18:01:00,
2013-05-02 14:06:00,71.4,59.0,30.02,SW,233,2.0,2.0,65,0.00,,,0.00,VWS V14.01,2013-05-02 18:06:00,
2013-05-02 14:11:00,71.9,59.5,30.02,SSW,194,1.0,3.0,65,0.00,,,0.00,VWS V14.01,2013-05-02 18:11:00,
2013-05-02 14:16:00,72.0,59.2,30.02,SW,236,1.0,1.0,64,0.00,,,0.00,VWS V14.01,2013-05-02 18:16:00,
2013-05-02 14:21:00,72.2,59.8,30.02,SW,227,1.0,5.0,65,0.00,,,0.00,VWS V14.01,2013-05-02 18:21:00,
2013-05-02 14:26:00,72.4,59.1,30.02,SSW,211,1.0,2.0,63,0.00,,,0.00,VWS V14.01,2013-05-02 18:26:00,
2013-05-02 14:31:00,72.4,59.5,30.02,SSW,206,2.0,3.0,64,0.00,,,0.00,VWS V14.01,2013-05-02 18:31:00,
2013-05-02 14:36:00,72.6,59.7,30.02,WSW,253,1.0,5.0,64,0.00,,,0.00,VWS V14.01,2013-05-02 18:36:00,
2013-05-02 14:41:00,72.7,59.8,30.02,SW,223,4.0,4.0,64,0.00,,,0.00,VWS V14.01,2013-05-02 18:41:00,
2013-05-02 14:46:00,72.6,59.3,30.01,SW,227,2.0,4.0,63,0.00,,,0.00,VWS V14.01,2013-05-02 18:46:00,
2013-05-02 14:51:00,72.6,59.7,30.01,SW,229,2.0,5.0,64,0.00,,,0.00,VWS V14.01,2013-05-02 18:51:00,